Petersville, Kentucky
Current Conditions -  °F | °C
As of 8:55 AM on Sunday 25 Jan 2015 (Local Time) from KFGX Reporting Station
Overcast Overcast  
Wind Chill: 27°   Ceiling: 11000
Heat Index: 35°   Visibility: 10mi
Dew Point: 31°   Wind: 12mph
Humidity: 85%   Direction: 200°SSW
Pressure: 29.77"   Gusts: NA
Location:  38.4929°N, 83.3898°W
Report Text: KFGX 251355Z AUTO 20010KT 10SM OVC110 02/00 A2977 RMK AO2 T00171005
Loading
Personal Weather Stations






























Interactive Weather Map New forecast layout! Learn more

10-Day Weather Forecast

Advertisements
Track Severe Weather on mobile